sensor_id;sensor_type;location;lat;lon;timestamp;pressure;altitude;pressure_sealevel;temperature;humidity
44697;BME280;57264;47.480;19.354;2023-05-14T00:00:42;99600.28;;;9.71;82.14
44697;BME280;57264;47.480;19.354;2023-05-14T00:03:08;99595.84;;;9.72;82.35
44697;BME280;57264;47.480;19.354;2023-05-14T00:05:33;99601.88;;;9.66;82.58
44697;BME280;57264;47.480;19.354;2023-05-14T00:07:59;99594.84;;;9.66;82.84
44697;BME280;57264;47.480;19.354;2023-05-14T00:10:25;99589.81;;;9.71;82.23
44697;BME280;57264;47.480;19.354;2023-05-14T00:12:51;99587.00;;;9.73;82.14
44697;BME280;57264;47.480;19.354;2023-05-14T00:15:16;99587.81;;;9.73;82.70
44697;BME280;57264;47.480;19.354;2023-05-14T00:17:42;99578.09;;;9.67;81.90
44697;BME280;57264;47.480;19.354;2023-05-14T00:20:07;99579.09;;;9.66;82.35
44697;BME280;57264;47.480;19.354;2023-05-14T00:22:33;99576.66;;;9.65;82.50
44697;BME280;57264;47.480;19.354;2023-05-14T00:25:01;99582.28;;;9.62;83.04
44697;BME280;57264;47.480;19.354;2023-05-14T00:27:26;99577.91;;;9.69;82.37
44697;BME280;57264;47.480;19.354;2023-05-14T00:29:52;99575.28;;;9.69;82.03
44697;BME280;57264;47.480;19.354;2023-05-14T00:32:17;99575.72;;;9.72;81.87
44697;BME280;57264;47.480;19.354;2023-05-14T00:34:43;99575.28;;;9.69;82.20
44697;BME280;57264;47.480;19.354;2023-05-14T00:37:08;99569.44;;;9.67;81.95
44697;BME280;57264;47.480;19.354;2023-05-14T00:39:34;99570.44;;;9.66;82.38
44697;BME280;57264;47.480;19.354;2023-05-14T00:41:59;99568.00;;;9.64;82.76
44697;BME280;57264;47.480;19.354;2023-05-14T00:44:25;99562.56;;;9.66;82.62
44697;BME280;57264;47.480;19.354;2023-05-14T00:46:51;99563.16;;;9.68;82.52
44697;BME280;57264;47.480;19.354;2023-05-14T00:49:17;99554.28;;;9.62;82.09
44697;BME280;57264;47.480;19.354;2023-05-14T00:51:43;99556.25;;;9.60;82.75
44697;BME280;57264;47.480;19.354;2023-05-14T00:54:15;99558.47;;;9.57;82.58
44697;BME280;57264;47.480;19.354;2023-05-14T00:56:44;99553.47;;;9.62;82.50
44697;BME280;57264;47.480;19.354;2023-05-14T00:59:10;99555.88;;;9.63;82.85
44697;BME280;57264;47.480;19.354;2023-05-14T01:01:36;99550.22;;;9.60;82.63
44697;BME280;57264;47.480;19.354;2023-05-14T01:04:02;99550.03;;;9.61;83.23
44697;BME280;57264;47.480;19.354;2023-05-14T01:14:53;99524.97;;;9.52;83.58
44697;BME280;57264;47.480;19.354;2023-05-14T01:17:19;99529.19;;;9.47;84.15
44697;BME280;57264;47.480;19.354;2023-05-14T01:19:47;99522.69;;;9.43;84.20
44697;BME280;57264;47.480;19.354;2023-05-14T01:22:13;99522.88;;;9.41;84.23
44697;BME280;57264;47.480;19.354;2023-05-14T01:24:39;99529.50;;;9.37;84.19
44697;BME280;57264;47.480;19.354;2023-05-14T01:29:48;99521.41;;;9.32;84.03
44697;BME280;57264;47.480;19.354;2023-05-14T01:32:16;99517.34;;;9.29;83.90
44697;BME280;57264;47.480;19.354;2023-05-14T01:34:43;99516.97;;;9.32;83.57
44697;BME280;57264;47.480;19.354;2023-05-14T01:37:11;99515.16;;;9.33;83.47
44697;BME280;57264;47.480;19.354;2023-05-14T01:39:38;99524.81;;;9.32;83.83
44697;BME280;57264;47.480;19.354;2023-05-14T01:42:06;99505.66;;;9.32;83.63
44697;BME280;57264;47.480;19.354;2023-05-14T01:44:32;99515.16;;;9.33;83.40
44697;BME280;57264;47.480;19.354;2023-05-14T01:46:57;99512.16;;;9.36;83.63
44697;BME280;57264;47.480;19.354;2023-05-14T01:49:23;99504.53;;;9.41;83.03
44697;BME280;57264;47.480;19.354;2023-05-14T01:51:48;99510.34;;;9.36;83.46
44697;BME280;57264;47.480;19.354;2023-05-14T01:54:14;99495.25;;;9.38;82.82
44697;BME280;57264;47.480;19.354;2023-05-14T01:56:39;99492.84;;;9.44;82.85
44697;BME280;57264;47.480;19.354;2023-05-14T01:59:05;99482.16;;;9.38;82.60
44697;BME280;57264;47.480;19.354;2023-05-14T02:01:30;99486.81;;;9.43;82.90
44697;BME280;57264;47.480;19.354;2023-05-14T02:03:56;99476.94;;;9.45;82.66
44697;BME280;57264;47.480;19.354;2023-05-14T02:06:21;99476.13;;;9.45;82.53
44697;BME280;57264;47.480;19.354;2023-05-14T02:08:47;99470.72;;;9.46;82.62
44697;BME280;57264;47.480;19.354;2023-05-14T02:11:12;99470.72;;;9.46;82.06
44697;BME280;57264;47.480;19.354;2023-05-14T02:13:38;99466.50;;;9.52;82.04
44697;BME280;57264;47.480;19.354;2023-05-14T02:16:04;99454.59;;;9.49;82.67
44697;BME280;57264;47.480;19.354;2023-05-14T02:18:30;99464.66;;;9.46;82.01
44697;BME280;57264;47.480;19.354;2023-05-14T02:20:55;99458.22;;;9.48;81.69
44697;BME280;57264;47.480;19.354;2023-05-14T02:23:22;99461.06;;;9.47;82.33
44697;BME280;57264;47.480;19.354;2023-05-14T02:25:47;99460.59;;;9.43;82.49
44697;BME280;57264;47.480;19.354;2023-05-14T02:28:13;99458.44;;;9.47;82.26
44697;BME280;57264;47.480;19.354;2023-05-14T02:30:38;99468.91;;;9.47;82.31
44697;BME280;57264;47.480;19.354;2023-05-14T02:33:04;99459.03;;;9.49;82.46
44697;BME280;57264;47.480;19.354;2023-05-14T02:35:29;99466.72;;;9.50;82.31
44697;BME280;57264;47.480;19.354;2023-05-14T02:37:55;99462.28;;;9.51;81.71
44697;BME280;57264;47.480;19.354;2023-05-14T02:40:20;99467.94;;;9.54;82.29
44697;BME280;57264;47.480;19.354;2023-05-14T02:42:46;99467.72;;;9.49;82.46
44697;BME280;57264;47.480;19.354;2023-05-14T02:45:11;99465.69;;;9.51;81.83
44697;BME280;57264;47.480;19.354;2023-05-14T02:47:37;99463.28;;;9.50;82.49
44697;BME280;57264;47.480;19.354;2023-05-14T02:50:03;99457.81;;;9.51;82.36
44697;BME280;57264;47.480;19.354;2023-05-14T02:52:30;99455.66;;;9.55;81.75
44697;BME280;57264;47.480;19.354;2023-05-14T02:54:56;99463.53;;;9.55;81.62
44697;BME280;57264;47.480;19.354;2023-05-14T02:57:21;99456.59;;;9.47;81.92
44697;BME280;57264;47.480;19.354;2023-05-14T02:59:47;99460.09;;;9.54;81.85
44697;BME280;57264;47.480;19.354;2023-05-14T03:02:12;99457.47;;;9.54;81.96
44697;BME280;57264;47.480;19.354;2023-05-14T03:04:37;99454.22;;;9.52;81.82
44697;BME280;57264;47.480;19.354;2023-05-14T03:07:03;99449.59;;;9.54;81.56
44697;BME280;57264;47.480;19.354;2023-05-14T03:09:28;99447.34;;;9.51;81.63
44697;BME280;57264;47.480;19.354;2023-05-14T03:11:54;99448.56;;;9.49;82.02
44697;BME280;57264;47.480;19.354;2023-05-14T03:14:19;99462.47;;;9.49;81.83
44697;BME280;57264;47.480;19.354;2023-05-14T03:16:45;99448.97;;;9.52;81.85
44697;BME280;57264;47.480;19.354;2023-05-14T03:19:10;99449.38;;;9.56;81.31
44697;BME280;57264;47.480;19.354;2023-05-14T03:21:36;99441.16;;;9.59;81.67
44697;BME280;57264;47.480;19.354;2023-05-14T03:24:01;99444.81;;;9.64;81.52
44697;BME280;57264;47.480;19.354;2023-05-14T03:26:27;99438.38;;;9.67;80.80
44697;BME280;57264;47.480;19.354;2023-05-14T03:28:53;99443.41;;;9.68;81.21
44697;BME280;57264;47.480;19.354;2023-05-14T03:31:18;99446.25;;;9.73;80.68
44697;BME280;57264;47.480;19.354;2023-05-14T03:33:44;99449.47;;;9.75;80.59
44697;BME280;57264;47.480;19.354;2023-05-14T03:36:09;99441.25;;;9.78;80.83
44697;BME280;57264;47.480;19.354;2023-05-14T03:38:35;99449.94;;;9.85;80.14
44697;BME280;57264;47.480;19.354;2023-05-14T03:41:01;99448.97;;;10.00;79.74
44697;BME280;57264;47.480;19.354;2023-05-14T03:43:26;99454.13;;;10.21;78.83
44697;BME280;57264;47.480;19.354;2023-05-14T03:45:52;99460.41;;;10.33;78.14
44697;BME280;57264;47.480;19.354;2023-05-14T03:48:18;99467.25;;;10.27;77.80
44697;BME280;57264;47.480;19.354;2023-05-14T03:50:44;99463.41;;;10.23;77.79
44697;BME280;57264;47.480;19.354;2023-05-14T03:53:09;99457.34;;;10.16;78.10
44697;BME280;57264;47.480;19.354;2023-05-14T03:55:35;99455.50;;;10.10;78.02
44697;BME280;57264;47.480;19.354;2023-05-14T03:58:01;99453.84;;;10.03;78.11
44697;BME280;57264;47.480;19.354;2023-05-14T04:00:27;99442.34;;;10.04;78.25
44697;BME280;57264;47.480;19.354;2023-05-14T04:02:53;99435.50;;;10.03;77.88
44697;BME280;57264;47.480;19.354;2023-05-14T04:05:19;99433.47;;;9.98;78.38
44697;BME280;57264;47.480;19.354;2023-05-14T04:07:44;99439.31;;;10.00;77.69
44697;BME280;57264;47.480;19.354;2023-05-14T04:10:12;99446.78;;;10.03;78.44
44697;BME280;57264;47.480;19.354;2023-05-14T04:12:38;99453.22;;;10.01;78.13
44697;BME280;57264;47.480;19.354;2023-05-14T04:15:04;99467.34;;;10.00;78.19
44697;BME280;57264;47.480;19.354;2023-05-14T04:17:29;99448.78;;;10.01;78.21
44697;BME280;57264;47.480;19.354;2023-05-14T04:19:55;99442.31;;;9.97;78.10
44697;BME280;57264;47.480;19.354;2023-05-14T04:22:20;99447.75;;;9.89;77.90
44697;BME280;57264;47.480;19.354;2023-05-14T04:24:46;99459.22;;;9.88;78.25
44697;BME280;57264;47.480;19.354;2023-05-14T04:27:18;99446.69;;;9.83;78.34
44697;BME280;57264;47.480;19.354;2023-05-14T04:29:44;99437.59;;;9.79;78.57
44697;BME280;57264;47.480;19.354;2023-05-14T04:32:09;99450.94;;;9.78;78.58
44697;BME280;57264;47.480;19.354;2023-05-14T04:34:36;99441.25;;;9.78;78.45
44697;BME280;57264;47.480;19.354;2023-05-14T04:37:02;99440.03;;;9.81;78.21
44697;BME280;57264;47.480;19.354;2023-05-14T04:39:28;99446.34;;;9.86;78.86
44697;BME280;57264;47.480;19.354;2023-05-14T04:41:53;99453.38;;;9.86;78.84
44697;BME280;57264;47.480;19.354;2023-05-14T04:44:19;99441.03;;;9.80;78.72
44697;BME280;57264;47.480;19.354;2023-05-14T04:46:45;99440.84;;;9.81;78.78
44697;BME280;57264;47.480;19.354;2023-05-14T04:49:10;99435.38;;;9.76;77.71
44697;BME280;57264;47.480;19.354;2023-05-14T04:51:36;99433.56;;;9.77;78.20
44697;BME280;57264;47.480;19.354;2023-05-14T04:54:01;99443.88;;;9.78;78.38
44697;BME280;57264;47.480;19.354;2023-05-14T04:56:27;99441.03;;;9.73;78.86
44697;BME280;57264;47.480;19.354;2023-05-14T04:58:52;99444.25;;;9.75;78.14
44697;BME280;57264;47.480;19.354;2023-05-14T05:01:18;99427.53;;;9.76;78.05
44697;BME280;57264;47.480;19.354;2023-05-14T05:03:43;99429.13;;;9.77;78.10
44697;BME280;57264;47.480;19.354;2023-05-14T05:06:09;99428.34;;;9.83;78.26
44697;BME280;57264;47.480;19.354;2023-05-14T05:08:35;99424.50;;;9.79;77.97
44697;BME280;57264;47.480;19.354;2023-05-14T05:11:01;99422.09;;;9.84;77.99
44697;BME280;57264;47.480;19.354;2023-05-14T05:13:26;99428.16;;;9.85;78.12
44697;BME280;57264;47.480;19.354;2023-05-14T05:15:52;99423.09;;;9.83;77.99
44697;BME280;57264;47.480;19.354;2023-05-14T05:18:17;99428.56;;;9.88;77.64
44697;BME280;57264;47.480;19.354;2023-05-14T05:20:43;99422.28;;;9.83;78.04
44697;BME280;57264;47.480;19.354;2023-05-14T05:23:08;99415.47;;;9.88;78.27
44697;BME280;57264;47.480;19.354;2023-05-14T05:25:34;99422.13;;;9.91;77.95
44697;BME280;57264;47.480;19.354;2023-05-14T05:28:00;99422.75;;;10.00;77.64
44697;BME280;57264;47.480;19.354;2023-05-14T05:30:26;99420.72;;;9.95;77.96
44697;BME280;57264;47.480;19.354;2023-05-14T05:32:51;99416.91;;;9.98;77.83
44697;BME280;57264;47.480;19.354;2023-05-14T05:35:17;99424.38;;;10.01;77.34
44697;BME280;57264;47.480;19.354;2023-05-14T05:37:42;99428.63;;;10.02;77.25
44697;BME280;57264;47.480;19.354;2023-05-14T05:40:09;99433.06;;;10.08;77.27
44697;BME280;57264;47.480;19.354;2023-05-14T05:42:35;99423.47;;;10.15;76.87
44697;BME280;57264;47.480;19.354;2023-05-14T05:45:00;99427.31;;;10.19;76.60
44697;BME280;57264;47.480;19.354;2023-05-14T05:47:26;99424.84;;;10.11;77.38
44697;BME280;57264;47.480;19.354;2023-05-14T05:49:51;99430.31;;;10.16;76.90
44697;BME280;57264;47.480;19.354;2023-05-14T05:52:18;99428.53;;;10.23;77.43
44697;BME280;57264;47.480;19.354;2023-05-14T05:54:44;99423.66;;;10.20;77.22
44697;BME280;57264;47.480;19.354;2023-05-14T05:57:09;99417.22;;;10.29;76.79
44697;BME280;57264;47.480;19.354;2023-05-14T05:59:35;99413.59;;;10.30;76.80
44697;BME280;57264;47.480;19.354;2023-05-14T06:02:01;99421.25;;;10.25;76.62
44697;BME280;57264;47.480;19.354;2023-05-14T06:04:26;99419.66;;;10.30;76.64
44697;BME280;57264;47.480;19.354;2023-05-14T06:06:52;99425.50;;;10.26;76.75
44697;BME280;57264;47.480;19.354;2023-05-14T06:09:18;99416.00;;;10.31;76.97
44697;BME280;57264;47.480;19.354;2023-05-14T06:11:43;99423.50;;;10.35;76.77
44697;BME280;57264;47.480;19.354;2023-05-14T06:14:09;99427.13;;;10.33;77.04
44697;BME280;57264;47.480;19.354;2023-05-14T06:16:34;99427.13;;;10.40;76.71
44697;BME280;57264;47.480;19.354;2023-05-14T06:19:00;99437.22;;;10.37;77.10
44697;BME280;57264;47.480;19.354;2023-05-14T06:21:26;99435.22;;;10.45;77.00
44697;BME280;57264;47.480;19.354;2023-05-14T06:23:51;99438.88;;;10.51;76.06
44697;BME280;57264;47.480;19.354;2023-05-14T06:26:17;99440.47;;;10.52;77.13
44697;BME280;57264;47.480;19.354;2023-05-14T06:28:43;99429.16;;;10.51;77.13
44697;BME280;57264;47.480;19.354;2023-05-14T06:31:09;99435.25;;;10.58;76.41
44697;BME280;57264;47.480;19.354;2023-05-14T06:33:34;99423.72;;;10.46;76.66
44697;BME280;57264;47.480;19.354;2023-05-14T06:36:03;99426.53;;;10.45;77.33
44697;BME280;57264;47.480;19.354;2023-05-14T06:38:28;99428.34;;;10.44;77.32
44697;BME280;57264;47.480;19.354;2023-05-14T06:40:54;99433.22;;;10.54;76.96
44697;BME280;57264;47.480;19.354;2023-05-14T06:43:20;99432.81;;;10.50;76.88
44697;BME280;57264;47.480;19.354;2023-05-14T06:45:50;99428.78;;;10.54;77.28
44697;BME280;57264;47.480;19.354;2023-05-14T06:48:16;99425.56;;;10.65;76.58
44697;BME280;57264;47.480;19.354;2023-05-14T06:50:45;99427.56;;;10.70;76.56
44697;BME280;57264;47.480;19.354;2023-05-14T06:53:11;99422.72;;;10.73;76.93
44697;BME280;57264;47.480;19.354;2023-05-14T06:55:38;99426.16;;;10.80;76.77
44697;BME280;57264;47.480;19.354;2023-05-14T06:58:07;99417.88;;;10.77;76.87
44697;BME280;57264;47.480;19.354;2023-05-14T07:00:32;99408.97;;;10.85;77.91
44697;BME280;57264;47.480;19.354;2023-05-14T07:02:58;99400.50;;;11.02;76.33
44697;BME280;57264;47.480;19.354;2023-05-14T07:05:24;99399.66;;;11.08;76.41
44697;BME280;57264;47.480;19.354;2023-05-14T07:07:50;99401.69;;;11.00;75.88
44697;BME280;57264;47.480;19.354;2023-05-14T07:10:16;99400.88;;;11.06;75.73
44697;BME280;57264;47.480;19.354;2023-05-14T07:12:41;99395.03;;;11.04;76.42
44697;BME280;57264;47.480;19.354;2023-05-14T07:15:08;99396.22;;;11.21;75.60
44697;BME280;57264;47.480;19.354;2023-05-14T07:17:33;99403.44;;;11.32;75.10
44697;BME280;57264;47.480;19.354;2023-05-14T07:19:59;99388.28;;;11.27;75.58
44697;BME280;57264;47.480;19.354;2023-05-14T07:22:24;99387.06;;;11.37;75.38
44697;BME280;57264;47.480;19.354;2023-05-14T07:24:50;99385.84;;;11.46;74.71
44697;BME280;57264;47.480;19.354;2023-05-14T07:27:15;99386.63;;;11.53;74.94
44697;BME280;57264;47.480;19.354;2023-05-14T07:29:41;99379.72;;;11.58;74.88
44697;BME280;57264;47.480;19.354;2023-05-14T07:32:07;99376.81;;;11.86;73.95
44697;BME280;57264;47.480;19.354;2023-05-14T07:34:33;99380.56;;;12.03;73.46
44697;BME280;57264;47.480;19.354;2023-05-14T07:36:59;99375.94;;;12.30;72.53
44697;BME280;57264;47.480;19.354;2023-05-14T07:39:25;99377.44;;;12.44;72.39
44697;BME280;57264;47.480;19.354;2023-05-14T07:41:51;99370.41;;;12.38;72.86
44697;BME280;57264;47.480;19.354;2023-05-14T07:44:19;99370.09;;;12.53;72.85
44697;BME280;57264;47.480;19.354;2023-05-14T07:46:44;99369.38;;;12.64;71.05
44697;BME280;57264;47.480;19.354;2023-05-14T07:49:10;99363.16;;;12.58;71.66
44697;BME280;57264;47.480;19.354;2023-05-14T07:51:35;99366.66;;;12.77;71.78
44697;BME280;57264;47.480;19.354;2023-05-14T07:54:01;99360.09;;;12.86;70.62
44697;BME280;57264;47.480;19.354;2023-05-14T07:56:26;99363.16;;;13.01;70.00
44697;BME280;57264;47.480;19.354;2023-05-14T08:12:52;99354.56;;;13.67;70.42
44697;BME280;57264;47.480;19.354;2023-05-14T08:15:18;99346.25;;;13.52;70.76
44697;BME280;57264;47.480;19.354;2023-05-14T08:17:43;99348.38;;;13.73;69.77
44697;BME280;57264;47.480;19.354;2023-05-14T08:20:09;99352.97;;;13.96;69.96
44697;BME280;57264;47.480;19.354;2023-05-14T08:22:36;99346.91;;;14.07;70.38
44697;BME280;57264;47.480;19.354;2023-05-14T08:25:02;99341.16;;;14.40;69.93
44697;BME280;57264;47.480;19.354;2023-05-14T08:27:28;99331.59;;;14.27;68.91
44697;BME280;57264;47.480;19.354;2023-05-14T08:29:53;99331.50;;;14.45;69.47
44697;BME280;57264;47.480;19.354;2023-05-14T08:32:19;99325.81;;;14.60;68.83
44697;BME280;57264;47.480;19.354;2023-05-14T08:34:45;99326.03;;;14.59;70.10
44697;BME280;57264;47.480;19.354;2023-05-14T08:37:10;99320.88;;;14.75;69.21
44697;BME280;57264;47.480;19.354;2023-05-14T08:39:36;99312.47;;;14.78;69.52
44697;BME280;57264;47.480;19.354;2023-05-14T08:42:05;99308.97;;;15.24;69.16
44697;BME280;57264;47.480;19.354;2023-05-14T08:44:55;99313.84;;;15.04;68.99
44697;BME280;57264;47.480;19.354;2023-05-14T08:47:22;99304.50;;;15.02;68.30
44697;BME280;57264;47.480;19.354;2023-05-14T08:50:08;99312.69;;;14.77;67.81
44697;BME280;57264;47.480;19.354;2023-05-14T08:52:34;99295.00;;;14.42;69.56
44697;BME280;57264;47.480;19.354;2023-05-14T08:55:02;99291.84;;;14.11;70.66
44697;BME280;57264;47.480;19.354;2023-05-14T08:57:29;99296.38;;;13.92;70.81
44697;BME280;57264;47.480;19.354;2023-05-14T08:59:56;99290.44;;;13.67;72.23
44697;BME280;57264;47.480;19.354;2023-05-14T09:02:29;99291.81;;;13.99;72.24
44697;BME280;57264;47.480;19.354;2023-05-14T09:04:58;99287.63;;;14.44;71.03
44697;BME280;57264;47.480;19.354;2023-05-14T09:07:24;99292.16;;;14.56;72.61
44697;BME280;57264;47.480;19.354;2023-05-14T09:09:51;99278.81;;;14.62;71.75
44697;BME280;57264;47.480;19.354;2023-05-14T09:12:16;99272.25;;;14.41;69.61
44697;BME280;57264;47.480;19.354;2023-05-14T09:14:43;99281.59;;;14.44;69.24
44697;BME280;57264;47.480;19.354;2023-05-14T09:17:10;99284.91;;;14.39;70.34
44697;BME280;57264;47.480;19.354;2023-05-14T09:19:41;99293.63;;;13.98;72.10
44697;BME280;57264;47.480;19.354;2023-05-14T09:22:12;99280.66;;;13.97;70.08
44697;BME280;57264;47.480;19.354;2023-05-14T09:24:38;99282.78;;;13.77;72.56
44697;BME280;57264;47.480;19.354;2023-05-14T09:27:05;99295.41;;;13.75;72.02
44697;BME280;57264;47.480;19.354;2023-05-14T09:29:31;99302.78;;;13.54;72.91
44697;BME280;57264;47.480;19.354;2023-05-14T09:31:58;99291.06;;;13.50;73.52
44697;BME280;57264;47.480;19.354;2023-05-14T09:34:31;99277.28;;;13.48;73.59
44697;BME280;57264;47.480;19.354;2023-05-14T09:37:01;99281.53;;;13.49;73.48
44697;BME280;57264;47.480;19.354;2023-05-14T09:39:27;99279.91;;;13.48;73.77
44697;BME280;57264;47.480;19.354;2023-05-14T09:41:54;99285.78;;;13.50;73.48
44697;BME280;57264;47.480;19.354;2023-05-14T09:44:20;99273.59;;;13.38;72.85
44697;BME280;57264;47.480;19.354;2023-05-14T09:46:47;99267.81;;;13.29;73.32
44697;BME280;57264;47.480;19.354;2023-05-14T09:49:13;99266.94;;;13.35;74.09
44697;BME280;57264;47.480;19.354;2023-05-14T09:51:39;99264.16;;;13.30;73.19
44697;BME280;57264;47.480;19.354;2023-05-14T09:54:05;99261.50;;;13.30;73.50
44697;BME280;57264;47.480;19.354;2023-05-14T09:56:32;99258.47;;;13.45;73.48
44697;BME280;57264;47.480;19.354;2023-05-14T09:58:58;99266.78;;;13.60;73.36
44697;BME280;57264;47.480;19.354;2023-05-14T10:01:24;99256.69;;;13.57;73.58
44697;BME280;57264;47.480;19.354;2023-05-14T10:03:52;99259.28;;;13.45;72.90
44697;BME280;57264;47.480;19.354;2023-05-14T10:06:22;99255.22;;;13.61;74.11
44697;BME280;57264;47.480;19.354;2023-05-14T10:08:52;99243.16;;;13.53;73.06
44697;BME280;57264;47.480;19.354;2023-05-14T10:11:19;99254.69;;;13.71;73.26
44697;BME280;57264;47.480;19.354;2023-05-14T10:16:36;99243.47;;;13.87;72.18
44697;BME280;57264;47.480;19.354;2023-05-14T10:19:08;99232.56;;;13.83;71.44
44697;BME280;57264;47.480;19.354;2023-05-14T10:21:35;99218.91;;;13.75;72.39
44697;BME280;57264;47.480;19.354;2023-05-14T10:24:02;99197.56;;;13.76;72.26
44697;BME280;57264;47.480;19.354;2023-05-14T10:26:30;99171.44;;;13.86;72.18
44697;BME280;57264;47.480;19.354;2023-05-14T10:28:56;99165.00;;;14.05;72.55
44697;BME280;57264;47.480;19.354;2023-05-14T10:31:23;99143.06;;;14.28;72.00
44697;BME280;57264;47.480;19.354;2023-05-14T10:34:41;99140.53;;;14.57;71.83
44697;BME280;57264;47.480;19.354;2023-05-14T10:42:07;99150.09;;;15.14;70.07
44697;BME280;57264;47.480;19.354;2023-05-14T10:44:34;99171.09;;;15.21;70.54
44697;BME280;57264;47.480;19.354;2023-05-14T10:47:01;99173.56;;;15.11;70.79
44697;BME280;57264;47.480;19.354;2023-05-14T10:49:27;99178.69;;;14.89;70.88
44697;BME280;57264;47.480;19.354;2023-05-14T10:51:53;99184.72;;;14.61;71.20
44697;BME280;57264;47.480;19.354;2023-05-14T10:54:18;99185.69;;;14.32;70.53
44697;BME280;57264;47.480;19.354;2023-05-14T10:56:48;99184.97;;;14.25;71.98
44697;BME280;57264;47.480;19.354;2023-05-14T10:59:15;99178.66;;;14.14;72.97
44697;BME280;57264;47.480;19.354;2023-05-14T11:01:41;99177.53;;;14.10;72.06
44697;BME280;57264;47.480;19.354;2023-05-14T11:04:07;99175.22;;;14.14;71.76
44697;BME280;57264;47.480;19.354;2023-05-14T11:06:34;99168.47;;;14.06;71.75
44697;BME280;57264;47.480;19.354;2023-05-14T11:09:02;99166.38;;;13.96;70.77
44697;BME280;57264;47.480;19.354;2023-05-14T11:11:29;99169.25;;;14.06;71.05
44697;BME280;57264;47.480;19.354;2023-05-14T11:13:55;99158.69;;;14.06;71.03
44697;BME280;57264;47.480;19.354;2023-05-14T11:16:21;99165.25;;;14.04;71.78
44697;BME280;57264;47.480;19.354;2023-05-14T11:18:59;99152.28;;;14.02;72.69
44697;BME280;57264;47.480;19.354;2023-05-14T11:21:26;99147.34;;;13.94;71.66
44697;BME280;57264;47.480;19.354;2023-05-14T11:23:53;99140.44;;;13.93;73.52
44697;BME280;57264;47.480;19.354;2023-05-14T11:26:19;99146.41;;;13.77;74.58
44697;BME280;57264;47.480;19.354;2023-05-14T11:28:45;99152.00;;;13.57;74.10
44697;BME280;57264;47.480;19.354;2023-05-14T11:31:11;99154.25;;;13.42;74.73
44697;BME280;57264;47.480;19.354;2023-05-14T11:33:36;99158.38;;;13.38;75.54
44697;BME280;57264;47.480;19.354;2023-05-14T11:36:03;99150.34;;;13.33;74.94
44697;BME280;57264;47.480;19.354;2023-05-14T11:38:28;99152.72;;;13.23;75.46
44697;BME280;57264;47.480;19.354;2023-05-14T11:40:55;99139.88;;;13.15;75.15
44697;BME280;57264;47.480;19.354;2023-05-14T11:43:21;99140.53;;;13.10;76.30
44697;BME280;57264;47.480;19.354;2023-05-14T11:45:54;99136.47;;;13.08;75.53
44697;BME280;57264;47.480;19.354;2023-05-14T11:48:20;99145.28;;;13.02;75.60
44697;BME280;57264;47.480;19.354;2023-05-14T11:50:51;99133.81;;;13.08;75.74
44697;BME280;57264;47.480;19.354;2023-05-14T11:53:28;99144.09;;;13.16;75.44
44697;BME280;57264;47.480;19.354;2023-05-14T11:55:53;99145.13;;;13.15;75.57
44697;BME280;57264;47.480;19.354;2023-05-14T11:58:20;99139.50;;;13.11;75.11
44697;BME280;57264;47.480;19.354;2023-05-14T12:00:49;99129.47;;;13.02;76.63
44697;BME280;57264;47.480;19.354;2023-05-14T12:03:14;99132.25;;;13.07;77.69
44697;BME280;57264;47.480;19.354;2023-05-14T12:05:40;99126.25;;;13.00;77.82
44697;BME280;57264;47.480;19.354;2023-05-14T12:08:25;99119.59;;;12.97;78.31
44697;BME280;57264;47.480;19.354;2023-05-14T12:10:54;99113.81;;;12.89;80.37
44697;BME280;57264;47.480;19.354;2023-05-14T12:13:21;99109.00;;;12.86;80.32
44697;BME280;57264;47.480;19.354;2023-05-14T12:15:54;99113.56;;;12.79;80.25
44697;BME280;57264;47.480;19.354;2023-05-14T12:18:21;99109.19;;;12.73;81.63
44697;BME280;57264;47.480;19.354;2023-05-14T12:20:47;99104.22;;;12.64;82.32
44697;BME280;57264;47.480;19.354;2023-05-14T12:23:13;99102.13;;;12.55;82.82
44697;BME280;57264;47.480;19.354;2023-05-14T12:25:40;99090.19;;;12.52;83.18
44697;BME280;57264;47.480;19.354;2023-05-14T12:28:14;99082.78;;;12.61;84.05
44697;BME280;57264;47.480;19.354;2023-05-14T12:30:40;99067.59;;;12.63;84.26
44697;BME280;57264;47.480;19.354;2023-05-14T12:33:06;99068.81;;;12.60;84.73
44697;BME280;57264;47.480;19.354;2023-05-14T12:35:32;99073.06;;;12.61;84.56
44697;BME280;57264;47.480;19.354;2023-05-14T12:37:57;99068.16;;;12.65;84.63
44697;BME280;57264;47.480;19.354;2023-05-14T12:40:23;99069.56;;;12.68;84.78
44697;BME280;57264;47.480;19.354;2023-05-14T12:42:48;99055.78;;;12.65;84.99
44697;BME280;57264;47.480;19.354;2023-05-14T12:45:14;99058.44;;;12.65;85.06
44697;BME280;57264;47.480;19.354;2023-05-14T12:47:39;99055.09;;;12.58;85.41
44697;BME280;57264;47.480;19.354;2023-05-14T12:50:05;99063.84;;;12.52;85.75
44697;BME280;57264;47.480;19.354;2023-05-14T12:52:31;99068.72;;;12.37;86.72
44697;BME280;57264;47.480;19.354;2023-05-14T12:54:57;99064.16;;;12.44;86.84
44697;BME280;57264;47.480;19.354;2023-05-14T12:57:22;99056.50;;;12.43;87.06
44697;BME280;57264;47.480;19.354;2023-05-14T12:59:48;99053.13;;;12.36;87.48
44697;BME280;57264;47.480;19.354;2023-05-14T13:02:13;99043.66;;;12.35;87.43
44697;BME280;57264;47.480;19.354;2023-05-14T13:04:39;99038.44;;;12.28;87.52
44697;BME280;57264;47.480;19.354;2023-05-14T13:07:05;99033.63;;;12.25;87.91
44697;BME280;57264;47.480;19.354;2023-05-14T13:09:33;99034.28;;;12.20;88.02
44697;BME280;57264;47.480;19.354;2023-05-14T13:11:58;99036.25;;;12.25;88.47
44697;BME280;57264;47.480;19.354;2023-05-14T13:14:24;99021.50;;;12.24;89.13
44697;BME280;57264;47.480;19.354;2023-05-14T13:16:49;99016.75;;;12.14;88.90
44697;BME280;57264;47.480;19.354;2023-05-14T13:19:15;99022.38;;;12.18;89.48
44697;BME280;57264;47.480;19.354;2023-05-14T13:21:42;99022.38;;;12.18;89.51